createdAt,value
2023-04-01T00:01:27.220Z,10.64
2023-04-01T00:03:53.677Z,10.68
2023-04-01T00:06:20.030Z,10.63
2023-04-01T00:08:46.345Z,10.68
2023-04-01T00:11:12.677Z,10.71
2023-04-01T00:13:39.085Z,10.66
2023-04-01T00:16:17.649Z,10.62
2023-04-01T00:18:31.818Z,10.69
2023-04-01T00:20:58.176Z,10.57
2023-04-01T00:23:24.531Z,10.57
2023-04-01T00:25:50.996Z,10.66
2023-04-01T00:28:17.278Z,10.77
2023-04-01T00:30:43.621Z,10.61
2023-04-01T00:33:10.145Z,10.47
2023-04-01T00:35:36.507Z,10.35
2023-04-01T00:38:02.833Z,10.27
2023-04-01T00:40:29.232Z,10.25
2023-04-01T00:42:55.573Z,10.23
2023-04-01T00:45:21.905Z,10.15
2023-04-01T00:47:48.340Z,10.16
2023-04-01T00:50:14.717Z,10.24
2023-04-01T00:52:41.003Z,10.24
2023-04-01T00:55:07.398Z,10.37
2023-04-01T00:57:33.725Z,10.43
2023-04-01T01:00:00.074Z,10.42
2023-04-01T01:02:26.463Z,10.43
2023-04-01T01:04:52.732Z,10.41
2023-04-01T01:07:19.058Z,10.42
2023-04-01T01:09:45.480Z,10.42
2023-04-01T01:12:11.799Z,10.44
2023-04-01T01:14:38.164Z,10.46
2023-04-01T01:17:04.523Z,10.37
2023-04-01T01:19:30.916Z,10.46
2023-04-01T01:21:57.207Z,10.50
2023-04-01T01:24:23.627Z,10.49
2023-04-01T01:26:49.996Z,10.53
2023-04-01T01:29:16.326Z,10.55
2023-04-01T01:31:42.756Z,10.59
2023-04-01T01:34:08.992Z,10.64
2023-04-01T01:36:35.357Z,10.70
2023-04-01T01:39:01.704Z,10.74
2023-04-01T01:41:28.075Z,10.72
2023-04-01T01:43:54.413Z,10.69
2023-04-01T01:46:20.826Z,10.67
2023-04-01T01:48:47.201Z,10.68
2023-04-01T01:51:13.547Z,10.67
2023-04-01T01:53:39.891Z,10.69
2023-04-01T01:56:06.233Z,10.66
2023-04-01T01:58:32.563Z,10.65
2023-04-01T02:00:58.925Z,10.70
2023-04-01T02:03:25.353Z,10.79
2023-04-01T02:05:51.924Z,10.86
2023-04-01T02:08:18.271Z,10.93
2023-04-01T02:10:44.636Z,10.93
2023-04-01T02:13:11.014Z,10.91
2023-04-01T02:15:37.350Z,10.86
2023-04-01T02:18:03.754Z,10.88
2023-04-01T02:20:30.055Z,10.85
2023-04-01T02:22:56.403Z,10.82
2023-04-01T02:25:22.752Z,10.85
2023-04-01T02:27:49.139Z,10.82
2023-04-01T02:30:15.519Z,10.83
2023-04-01T02:32:41.911Z,10.83
2023-04-01T02:35:08.244Z,10.87
2023-04-01T02:37:36.310Z,10.90
2023-04-01T02:40:00.943Z,10.89
2023-04-01T02:42:27.347Z,10.88
2023-04-01T02:44:53.730Z,10.81
2023-04-01T02:47:20.094Z,10.74
2023-04-01T02:49:46.432Z,10.74
2023-04-01T02:52:12.802Z,10.60
2023-04-01T02:54:39.159Z,10.39
2023-04-01T02:57:05.523Z,10.31
2023-04-01T02:59:31.882Z,10.24
2023-04-01T03:01:58.268Z,10.12
2023-04-01T03:04:24.591Z,10.16
2023-04-01T03:06:50.913Z,10.13
2023-04-01T03:09:17.244Z,10.12
2023-04-01T03:11:43.564Z,10.03
2023-04-01T03:14:10.012Z,9.96
2023-04-01T03:16:36.431Z,9.98
2023-04-01T03:19:02.699Z,9.89
2023-04-01T03:21:29.062Z,9.92
2023-04-01T03:23:55.442Z,9.90
2023-04-01T03:26:21.768Z,9.93
2023-04-01T03:28:48.165Z,10.00
2023-04-01T03:31:14.542Z,10.00
2023-04-01T03:33:40.975Z,10.08
2023-04-01T03:36:07.424Z,10.11
2023-04-01T03:38:33.675Z,10.24
2023-04-01T03:41:00.007Z,10.29
2023-04-01T03:43:26.346Z,10.31
2023-04-01T03:45:52.747Z,10.39
2023-04-01T03:48:19.098Z,10.33
2023-04-01T03:50:45.496Z,10.30
2023-04-01T03:53:11.839Z,10.33
2023-04-01T03:55:38.187Z,10.32
2023-04-01T03:58:04.540Z,10.31
2023-04-01T04:00:30.879Z,10.34
2023-04-01T04:02:57.332Z,10.37
2023-04-01T04:05:23.601Z,10.37
2023-04-01T04:07:50.003Z,10.37
2023-04-01T04:10:16.344Z,10.42
2023-04-01T04:12:42.745Z,10.47
2023-04-01T04:15:09.083Z,10.46
2023-04-01T04:17:35.461Z,10.27
2023-04-01T04:20:01.750Z,10.18
2023-04-01T04:22:28.391Z,10.16
2023-04-01T04:24:54.708Z,10.07
2023-04-01T04:27:21.053Z,9.98
2023-04-01T04:29:47.673Z,9.96
2023-04-01T04:32:14.005Z,9.93
2023-04-01T04:34:40.330Z,9.94
2023-04-01T04:37:06.711Z,9.96
2023-04-01T04:39:33.073Z,9.89
2023-04-01T04:41:59.412Z,9.80
2023-04-01T04:44:25.736Z,9.69
2023-04-01T04:46:52.329Z,9.63
2023-04-01T04:49:18.598Z,9.65
2023-04-01T04:51:44.946Z,9.73
2023-04-01T04:54:11.270Z,9.86
2023-04-01T04:56:37.665Z,9.98
2023-04-01T04:59:04.097Z,10.09
2023-04-01T05:01:30.545Z,10.19
2023-04-01T05:03:56.801Z,10.27
2023-04-01T05:06:23.628Z,10.32
2023-04-01T05:08:49.537Z,10.37
2023-04-01T05:11:16.018Z,10.46
2023-04-01T05:13:42.366Z,10.55
2023-04-01T05:16:08.834Z,10.64
2023-04-01T05:18:35.119Z,10.64
2023-04-01T05:21:01.510Z,10.54
2023-04-01T05:23:28.085Z,10.49
2023-04-01T05:25:54.441Z,10.58
2023-04-01T05:28:20.795Z,10.80
2023-04-01T05:30:47.262Z,10.84
2023-04-01T05:33:13.560Z,10.97
2023-04-01T05:35:40.052Z,11.33
2023-04-01T05:38:08.063Z,11.68
2023-04-01T05:40:32.742Z,11.58
2023-04-01T05:42:59.083Z,11.84
2023-04-01T05:45:25.680Z,12.44
2023-04-01T05:47:52.057Z,12.49
2023-04-01T05:50:18.388Z,13.32
2023-04-01T05:52:44.751Z,14.04
2023-04-01T05:55:11.140Z,14.25
2023-04-01T05:57:38.144Z,14.57
2023-04-01T06:00:04.524Z,14.99
2023-04-01T06:02:31.178Z,15.18
2023-04-01T06:04:57.564Z,15.44
2023-04-01T06:07:23.857Z,15.17
2023-04-01T06:09:50.336Z,14.69
2023-04-01T06:12:16.743Z,14.47
2023-04-01T06:14:43.148Z,15.04
2023-04-01T06:17:09.488Z,15.55
2023-04-01T06:19:35.912Z,15.29
2023-04-01T06:22:02.250Z,15.06
2023-04-01T06:24:28.657Z,14.85
2023-04-01T06:26:55.310Z,14.82
2023-04-01T06:29:21.691Z,14.66
2023-04-01T06:31:48.166Z,14.75
2023-04-01T06:34:14.566Z,15.16
2023-04-01T06:36:40.997Z,15.17
2023-04-01T06:39:09.582Z,15.12
2023-04-01T06:41:33.661Z,14.94
2023-04-01T06:44:00.038Z,14.59
2023-04-01T06:46:26.482Z,14.31
2023-04-01T06:48:52.789Z,14.19
2023-04-01T06:51:19.164Z,14.30
2023-04-01T06:53:45.541Z,14.29
2023-04-01T06:56:11.907Z,14.36
2023-04-01T06:58:38.296Z,14.43
2023-04-01T07:01:04.612Z,14.29
2023-04-01T07:03:31.016Z,14.19
2023-04-01T07:05:57.332Z,14.19
2023-04-01T07:08:23.761Z,14.29
2023-04-01T07:10:50.141Z,14.35
2023-04-01T07:13:16.734Z,14.56
2023-04-01T07:15:42.981Z,14.89
2023-04-01T07:18:09.350Z,15.06
2023-04-01T07:20:35.670Z,15.17
2023-04-01T07:23:02.072Z,15.35
2023-04-01T07:25:28.374Z,15.34
2023-04-01T07:27:54.757Z,15.28
2023-04-01T07:30:21.076Z,15.23
2023-04-01T07:32:47.460Z,15.16
2023-04-01T07:35:13.957Z,15.36
2023-04-01T07:37:40.313Z,15.46
2023-04-01T07:40:06.694Z,15.54
2023-04-01T07:42:33.621Z,15.53
2023-04-01T07:45:00.056Z,15.55
2023-04-01T07:47:26.383Z,15.61
2023-04-01T07:49:52.742Z,15.70
2023-04-01T07:52:19.222Z,15.81
2023-04-01T07:54:45.542Z,15.77
2023-04-01T07:57:12.007Z,15.77
2023-04-01T07:59:38.348Z,15.79
2023-04-01T08:02:04.701Z,15.84
2023-04-01T08:04:31.077Z,15.85
2023-04-01T08:06:57.501Z,15.95
2023-04-01T08:09:23.838Z,15.98
2023-04-01T08:11:50.182Z,15.99
2023-04-01T08:14:16.578Z,15.98
2023-04-01T08:16:43.046Z,16.01
2023-04-01T08:19:09.283Z,15.99
2023-04-01T08:21:35.682Z,16.06
2023-04-01T08:24:02.070Z,16.18
2023-04-01T08:26:28.426Z,16.37
2023-04-01T08:28:54.742Z,16.47
2023-04-01T08:31:21.124Z,16.62
2023-04-01T08:33:47.410Z,16.81
2023-04-01T08:36:14.022Z,17.13
2023-04-01T08:38:40.269Z,17.30
2023-04-01T08:41:12.652Z,17.42
2023-04-01T08:43:39.313Z,17.78
2023-04-01T08:46:06.012Z,17.77
2023-04-01T08:48:32.320Z,17.90
2023-04-01T08:50:58.775Z,19.08
2023-04-01T08:53:25.078Z,20.23
2023-04-01T08:55:51.460Z,20.82
2023-04-01T08:58:18.095Z,20.23
2023-04-01T09:00:48.881Z,19.96
2023-04-01T09:03:15.438Z,20.03
2023-04-01T09:05:42.579Z,20.07
2023-04-01T09:08:08.974Z,19.74
2023-04-01T09:10:35.367Z,19.53
2023-04-01T09:13:01.803Z,19.40
2023-04-01T09:15:28.308Z,19.33
2023-04-01T09:17:54.628Z,19.38
2023-04-01T09:20:21.032Z,19.33
2023-04-01T09:22:49.740Z,19.33
2023-04-01T09:25:16.932Z,19.06
2023-04-01T09:27:45.992Z,19.16
2023-04-01T09:30:12.321Z,19.09
2023-04-01T09:32:38.765Z,19.06
2023-04-01T09:35:05.127Z,18.89
2023-04-01T09:37:31.467Z,18.81
2023-04-01T09:39:57.858Z,18.71
2023-04-01T09:42:24.227Z,18.62
2023-04-01T09:44:50.559Z,18.59
2023-04-01T09:47:16.930Z,18.63
2023-04-01T09:49:43.308Z,18.54
2023-04-01T09:52:09.676Z,18.56
2023-04-01T09:54:36.108Z,18.64
2023-04-01T09:57:02.399Z,18.58
2023-04-01T09:59:28.720Z,18.56
2023-04-01T10:01:55.107Z,18.51
2023-04-01T10:04:21.531Z,18.43
2023-04-01T10:06:47.818Z,18.48
2023-04-01T10:09:14.201Z,18.42
2023-04-01T10:11:40.604Z,18.53
2023-04-01T10:14:06.969Z,18.43
2023-04-01T10:16:33.428Z,18.29
2023-04-01T10:18:59.682Z,18.26
2023-04-01T10:21:26.094Z,18.20
2023-04-01T10:23:52.443Z,18.01
2023-04-01T10:26:18.776Z,17.83
2023-04-01T10:28:45.132Z,17.76
2023-04-01T10:31:11.485Z,17.66
2023-04-01T10:33:37.883Z,17.65
2023-04-01T10:36:04.255Z,17.61
2023-04-01T10:38:30.591Z,17.49
2023-04-01T10:40:57.009Z,17.39
2023-04-01T10:43:23.373Z,17.33
2023-04-01T10:45:49.728Z,17.28
2023-04-01T10:48:16.342Z,17.27
2023-04-01T10:50:42.728Z,17.22
2023-04-01T10:53:09.106Z,17.23
2023-04-01T10:55:35.540Z,17.26
2023-04-01T10:58:01.832Z,17.30
2023-04-01T11:00:28.174Z,17.36
2023-04-01T11:02:54.553Z,17.33
2023-04-01T11:05:21.178Z,17.27
2023-04-01T11:07:55.840Z,17.30
2023-04-01T11:10:13.610Z,17.31
2023-04-01T11:12:39.976Z,17.32
2023-04-01T11:15:06.378Z,17.38
2023-04-01T11:17:32.795Z,17.37
2023-04-01T11:19:59.110Z,17.38
2023-04-01T11:22:25.562Z,17.40
2023-04-01T11:24:51.963Z,17.45
2023-04-01T11:27:18.383Z,17.48
2023-04-01T11:29:56.599Z,17.40
2023-04-01T11:32:11.092Z,17.40
2023-04-01T11:34:37.445Z,17.38
2023-04-01T11:37:03.824Z,17.28
2023-04-01T11:39:30.145Z,17.24
2023-04-01T11:41:56.527Z,17.06
2023-04-01T11:44:22.848Z,16.65
2023-04-01T11:46:49.219Z,16.24
2023-04-01T11:49:15.553Z,14.90
2023-04-01T11:51:41.956Z,14.37
2023-04-01T11:54:08.337Z,13.90
2023-04-01T11:56:34.673Z,13.23
2023-04-01T11:59:01.003Z,12.35
2023-04-01T12:01:27.422Z,11.93
2023-04-01T12:03:53.976Z,11.64
2023-04-01T12:06:20.092Z,11.54
2023-04-01T12:08:46.466Z,11.51
2023-04-01T12:11:12.902Z,11.44
2023-04-01T12:13:39.350Z,11.55
2023-04-01T12:16:05.726Z,11.60
2023-04-01T12:18:32.294Z,11.63
2023-04-01T12:20:58.678Z,11.81
2023-04-01T12:23:24.982Z,11.95
2023-04-01T12:25:51.401Z,12.21
2023-04-01T12:28:17.694Z,12.49
2023-04-01T12:30:44.056Z,12.41
2023-04-01T12:33:10.425Z,12.26
2023-04-01T12:35:36.980Z,12.19
2023-04-01T12:38:03.298Z,12.05
2023-04-01T12:40:29.647Z,11.78
2023-04-01T12:42:55.963Z,11.71
2023-04-01T12:45:22.339Z,11.59
2023-04-01T12:47:48.700Z,11.55
2023-04-01T12:50:15.072Z,11.51
2023-04-01T12:52:41.502Z,11.53
2023-04-01T12:55:07.847Z,11.56
2023-04-01T12:57:34.328Z,11.51
2023-04-01T13:00:00.968Z,11.50
2023-04-01T13:02:27.281Z,11.43
2023-04-01T13:04:53.613Z,11.37
2023-04-01T13:07:20.042Z,11.30
2023-04-01T13:09:48.677Z,11.30
2023-04-01T13:12:12.765Z,11.14
2023-04-01T13:14:39.118Z,11.28
2023-04-01T13:17:05.454Z,11.40
2023-04-01T13:19:31.771Z,11.56
2023-04-01T13:21:58.154Z,11.65
2023-04-01T13:24:24.525Z,11.74
2023-04-01T13:26:50.871Z,11.88
2023-04-01T13:29:17.190Z,12.05
2023-04-01T13:31:43.649Z,12.18
2023-04-01T13:34:09.937Z,12.11
2023-04-01T13:36:36.277Z,12.18
2023-04-01T13:39:02.651Z,12.22
2023-04-01T13:41:28.995Z,12.05
2023-04-01T13:43:55.481Z,11.98
2023-04-01T13:46:21.863Z,11.83
2023-04-01T13:48:48.187Z,11.61
2023-04-01T13:51:14.592Z,11.63
2023-04-01T13:53:40.942Z,11.80
2023-04-01T13:56:07.391Z,11.91
2023-04-01T13:58:33.702Z,11.97
2023-04-01T14:01:00.165Z,12.08
2023-04-01T14:03:26.506Z,12.09
2023-04-01T14:05:52.843Z,11.74
2023-04-01T14:08:19.186Z,11.77
2023-04-01T14:10:45.584Z,11.90
2023-04-01T14:13:11.933Z,12.03
2023-04-01T14:15:38.276Z,12.13
2023-04-01T14:18:04.664Z,12.18
2023-04-01T14:20:31.013Z,12.24
2023-04-01T14:22:57.330Z,12.53
2023-04-01T14:25:23.747Z,12.70
2023-04-01T14:27:50.120Z,12.94
2023-04-01T14:30:16.466Z,13.25
2023-04-01T14:32:42.834Z,13.50
2023-04-01T14:35:09.132Z,13.72
2023-04-01T14:37:35.510Z,13.76
2023-04-01T14:40:01.947Z,13.94
2023-04-01T14:42:28.217Z,14.15
2023-04-01T14:44:55.627Z,14.21
2023-04-01T14:47:21.954Z,14.23
2023-04-01T14:49:48.317Z,14.32
2023-04-01T14:52:14.727Z,14.39
2023-04-01T14:54:41.039Z,14.46
2023-04-01T14:57:07.450Z,14.45
2023-04-01T14:59:33.865Z,14.56
2023-04-01T15:02:00.208Z,14.45
2023-04-01T15:04:26.648Z,14.44
2023-04-01T15:06:53.948Z,14.39
2023-04-01T15:09:20.357Z,14.36
2023-04-01T15:11:46.709Z,14.43
2023-04-01T15:14:13.191Z,14.44
2023-04-01T15:16:39.602Z,14.32
2023-04-01T15:19:06.140Z,14.31
2023-04-01T15:21:32.494Z,14.20
2023-04-01T15:23:58.916Z,14.15
2023-04-01T15:26:25.241Z,14.07
2023-04-01T15:28:51.740Z,14.03
2023-04-01T15:31:18.099Z,13.97
2023-04-01T15:33:44.441Z,13.89
2023-04-01T15:36:10.977Z,13.94
2023-04-01T15:38:37.291Z,14.00
2023-04-01T15:41:03.618Z,14.01
2023-04-01T15:43:30.046Z,14.00
2023-04-01T15:45:56.404Z,13.95
2023-04-01T15:48:22.777Z,14.00
2023-04-01T15:50:49.132Z,14.03
2023-04-01T15:53:15.442Z,13.98
2023-04-01T15:55:41.827Z,13.31
2023-04-01T15:58:08.194Z,12.35
2023-04-01T16:00:34.528Z,11.78
2023-04-01T16:03:00.985Z,11.26
2023-04-01T16:05:29.752Z,10.99
2023-04-01T16:07:56.117Z,10.82
2023-04-01T16:10:22.462Z,10.44
2023-04-01T16:12:48.802Z,10.05
2023-04-01T16:15:15.326Z,9.90
2023-04-01T16:17:41.541Z,9.67
2023-04-01T16:20:07.891Z,9.41
2023-04-01T16:22:34.286Z,9.37
2023-04-01T16:25:00.646Z,9.35
2023-04-01T16:27:26.974Z,9.41
2023-04-01T16:29:53.297Z,9.51
2023-04-01T16:32:19.645Z,9.62
2023-04-01T16:34:46.009Z,9.62
2023-04-01T16:37:12.410Z,9.65
2023-04-01T16:39:38.724Z,9.69
2023-04-01T16:42:05.286Z,9.68
2023-04-01T16:44:31.570Z,9.71
2023-04-01T16:46:57.969Z,9.79
2023-04-01T16:49:24.311Z,9.82
2023-04-01T16:51:50.735Z,9.78
2023-04-01T16:54:17.105Z,9.80
2023-04-01T16:56:43.441Z,9.80
2023-04-01T16:59:09.904Z,9.81
2023-04-01T17:01:36.327Z,9.81
2023-04-01T17:04:02.656Z,9.73
2023-04-01T17:06:29.438Z,9.69
2023-04-01T17:08:55.399Z,9.70
2023-04-01T17:11:21.764Z,9.71
2023-04-01T17:13:48.260Z,9.70
2023-04-01T17:16:14.624Z,9.63
2023-04-01T17:18:40.975Z,9.58
2023-04-01T17:21:07.317Z,9.57
2023-04-01T17:23:33.710Z,9.58
2023-04-01T17:26:00.151Z,9.51
2023-04-01T17:28:26.436Z,9.49
2023-04-01T17:30:52.827Z,9.49
2023-04-01T17:33:19.254Z,9.43
2023-04-01T17:35:45.671Z,9.45
2023-04-01T17:38:14.452Z,9.47
2023-04-01T17:40:40.810Z,9.45
2023-04-01T17:43:07.203Z,9.44
2023-04-01T17:45:33.592Z,9.44
2023-04-01T17:47:59.970Z,9.43
2023-04-01T17:50:26.290Z,9.35
2023-04-01T17:52:52.649Z,9.31
2023-04-01T17:55:19.023Z,9.29
2023-04-01T17:57:45.440Z,9.23
2023-04-01T18:00:11.786Z,9.18
2023-04-01T18:02:38.236Z,9.16
2023-04-01T18:05:04.506Z,9.21
2023-04-01T18:07:30.968Z,9.16
2023-04-01T18:09:57.305Z,9.16
2023-04-01T18:12:23.659Z,9.15
2023-04-01T18:14:50.002Z,9.14
2023-04-01T18:17:16.434Z,9.15
2023-04-01T18:19:42.785Z,9.15
2023-04-01T18:22:09.147Z,9.16
2023-04-01T18:24:35.484Z,9.12
2023-04-01T18:27:01.849Z,9.03
2023-04-01T18:29:28.205Z,9.01
2023-04-01T18:31:54.613Z,9.00
2023-04-01T18:34:20.957Z,9.03
2023-04-01T18:36:47.313Z,9.07
2023-04-01T18:39:13.988Z,9.08
2023-04-01T18:41:40.296Z,9.15
2023-04-01T18:44:06.651Z,9.14
2023-04-01T18:46:33.023Z,9.16
2023-04-01T18:48:59.422Z,9.22
2023-04-01T18:51:25.806Z,9.17
2023-04-01T18:53:52.156Z,9.19
2023-04-01T18:56:18.517Z,9.20
2023-04-01T18:58:44.894Z,9.20
2023-04-01T19:01:11.240Z,9.27
2023-04-01T19:03:37.800Z,9.32
2023-04-01T19:06:03.934Z,9.39
2023-04-01T19:08:30.458Z,9.40
2023-04-01T19:10:56.749Z,9.46
2023-04-01T19:13:27.611Z,9.52
2023-04-01T19:15:55.003Z,9.50
2023-04-01T19:18:21.298Z,9.47
2023-04-01T19:20:48.834Z,9.40
2023-04-01T19:23:16.280Z,9.42
2023-04-01T19:25:43.493Z,9.43
2023-04-01T19:28:09.878Z,9.46
2023-04-01T19:30:36.475Z,9.42
2023-04-01T19:33:02.768Z,9.41
2023-04-01T19:35:29.039Z,9.54
2023-04-01T19:37:55.383Z,9.67
2023-04-01T19:40:21.718Z,9.62
2023-04-01T19:42:48.142Z,9.55
2023-04-01T19:45:14.525Z,9.58
2023-04-01T19:47:40.882Z,9.64
2023-04-01T19:50:07.226Z,9.63
2023-04-01T19:52:33.574Z,9.65
2023-04-01T19:54:59.893Z,9.60
2023-04-01T19:57:28.545Z,9.59
2023-04-01T19:59:54.785Z,9.56
2023-04-01T20:02:21.166Z,9.59
2023-04-01T20:04:47.516Z,9.63
2023-04-01T20:07:13.907Z,9.61
2023-04-01T20:09:40.314Z,9.60
2023-04-01T20:12:06.725Z,9.62
2023-04-01T20:14:33.073Z,9.60
2023-04-01T20:16:59.413Z,9.65
2023-04-01T20:19:25.876Z,9.67
2023-04-01T20:21:52.214Z,9.73
2023-04-01T20:24:18.627Z,9.75
2023-04-01T20:26:44.985Z,9.73
2023-04-01T20:29:11.293Z,9.72
2023-04-01T20:31:37.693Z,9.76
2023-04-01T20:34:03.993Z,9.76
2023-04-01T20:36:31.288Z,9.80
2023-04-01T20:38:57.630Z,9.74
2023-04-01T20:41:23.969Z,9.70
2023-04-01T20:43:50.366Z,9.68
2023-04-01T20:46:16.779Z,9.66
2023-04-01T20:48:43.078Z,9.68
2023-04-01T20:51:09.712Z,9.65
2023-04-01T20:53:36.079Z,9.59
2023-04-01T20:56:02.433Z,9.58
2023-04-01T20:58:28.763Z,9.51
2023-04-01T21:00:55.119Z,9.50
2023-04-01T21:03:21.466Z,9.53
2023-04-01T21:05:47.844Z,9.56
2023-04-01T21:08:15.255Z,9.57
2023-04-01T21:10:44.290Z,9.55
2023-04-01T21:13:10.708Z,9.55
2023-04-01T21:15:37.248Z,9.61
2023-04-01T21:18:03.487Z,9.66
2023-04-01T21:20:29.778Z,9.72
2023-04-01T21:22:56.089Z,9.71
2023-04-01T21:25:22.512Z,9.75
2023-04-01T21:27:48.881Z,9.79
2023-04-01T21:30:15.333Z,9.84
2023-04-01T21:32:41.708Z,9.86
2023-04-01T21:35:08.101Z,9.89
2023-04-01T21:37:34.433Z,9.92
2023-04-01T21:40:00.766Z,9.91
2023-04-01T21:42:27.160Z,9.91
2023-04-01T21:44:53.514Z,9.96
2023-04-01T21:47:19.908Z,10.00
2023-04-01T21:49:46.197Z,9.96
2023-04-01T21:52:12.554Z,9.90
2023-04-01T21:54:38.929Z,9.88
2023-04-01T21:57:05.393Z,9.87
2023-04-01T21:59:31.592Z,9.82
2023-04-01T22:01:57.907Z,9.82
2023-04-01T22:04:24.629Z,9.80
2023-04-01T22:06:50.631Z,9.71
2023-04-01T22:09:17.002Z,9.53
2023-04-01T22:11:43.321Z,9.48
2023-04-01T22:14:09.701Z,9.27
2023-04-01T22:16:36.096Z,9.26
2023-04-01T22:19:02.394Z,9.29
2023-04-01T22:21:28.715Z,9.25
2023-04-01T22:23:55.138Z,9.23
2023-04-01T22:26:21.439Z,9.15
2023-04-01T22:28:47.816Z,9.09
2023-04-01T22:31:14.182Z,9.05
2023-04-01T22:33:40.522Z,9.01
2023-04-01T22:36:06.848Z,9.00
2023-04-01T22:38:33.230Z,8.98
2023-04-01T22:40:59.585Z,8.92
2023-04-01T22:43:25.969Z,8.88
2023-04-01T22:45:52.295Z,8.86
2023-04-01T22:48:18.659Z,8.83
2023-04-01T22:50:45.003Z,8.80
2023-04-01T22:53:11.415Z,8.77
2023-04-01T22:55:37.727Z,8.72
2023-04-01T22:58:04.074Z,8.72
2023-04-01T23:00:30.390Z,8.83
2023-04-01T23:02:56.847Z,8.88
2023-04-01T23:05:23.111Z,8.87
2023-04-01T23:07:49.495Z,8.91
2023-04-01T23:10:15.860Z,8.94
2023-04-01T23:12:42.286Z,8.98
2023-04-01T23:15:08.554Z,9.01
2023-04-01T23:17:35.003Z,9.05
2023-04-01T23:20:01.239Z,9.09
2023-04-01T23:22:27.598Z,9.14
2023-04-01T23:24:53.949Z,9.25
2023-04-01T23:27:20.336Z,9.22
2023-04-01T23:29:46.674Z,9.28
2023-04-01T23:32:13.051Z,9.24
2023-04-01T23:34:39.406Z,9.25
2023-04-01T23:37:05.819Z,9.26
2023-04-01T23:39:32.160Z,9.21
2023-04-01T23:41:58.516Z,9.15
2023-04-01T23:44:24.972Z,9.11
2023-04-01T23:46:51.338Z,9.06
2023-04-01T23:49:17.714Z,9.07
2023-04-01T23:51:44.072Z,9.05
2023-04-01T23:54:10.444Z,9.05
2023-04-01T23:56:36.758Z,9.05
2023-04-01T23:59:03.118Z,9.10
